Time;durP1;ratioP1;P1;durP2;ratioP2;P2;SDS_P1;SDS_P2;PMS_P1;PMS_P2;Temp;Humidity;BMP_temperature;BMP_pressure;BME280_temperature;BME280_humidity;BME280_pressure;Samples;Min_cycle;Max_cycle;Signal;HPM_P1;HPM_P2
2023/04/11 00:00:05;;;;;;;9.00;2.22;;;;;;;8.63;100.00;100539.38;4926247;29;20040;-80
2023/04/11 00:02:33;;;;;;;6.85;2.20;;;;;;;8.77;100.00;100546.38;4922393;29;20031;-81
2023/04/11 00:04:59;;;;;;;5.05;2.10;;;;;;;8.78;100.00;100546.00;4921137;29;20034;-80
2023/04/11 00:07:25;;;;;;;7.95;1.90;;;;;;;8.80;100.00;100554.03;4925994;29;20035;-80
2023/04/11 00:09:50;;;;;;;6.35;1.95;;;;;;;8.79;100.00;100546.81;4906324;29;20038;-81
2023/04/11 00:12:16;;;;;;;9.60;1.65;;;;;;;8.60;100.00;100554.09;4899113;29;20027;-80
2023/04/11 00:14:44;;;;;;;4.38;1.65;;;;;;;8.62;100.00;100540.59;4899552;29;20478;-81
2023/04/11 00:17:13;;;;;;;8.25;1.80;;;;;;;8.68;100.00;100561.38;4918894;29;20039;-81
2023/04/11 00:19:38;;;;;;;12.55;2.47;;;;;;;8.64;100.00;100552.16;4919297;29;20035;-81
2023/04/11 00:22:04;;;;;;;3.78;2.03;;;;;;;8.64;100.00;100554.94;4923403;29;20042;-81
2023/04/11 00:24:29;;;;;;;4.25;1.77;;;;;;;8.69;100.00;100543.47;4922413;29;20020;-80
2023/04/11 00:26:55;;;;;;;6.68;1.52;;;;;;;8.60;100.00;100544.91;4902346;29;20032;-80
2023/04/11 00:29:21;;;;;;;5.90;1.95;;;;;;;8.50;100.00;100546.34;4919291;29;20114;-80
2023/04/11 00:31:46;;;;;;;3.85;1.88;;;;;;;8.33;100.00;100542.03;4922433;29;20043;-80
2023/04/11 00:34:12;;;;;;;10.45;2.88;;;;;;;8.38;100.00;100543.72;4909003;29;20487;-80
2023/04/11 00:36:40;;;;;;;5.60;1.75;;;;;;;8.54;100.00;100541.63;4923293;29;20039;-80
2023/04/11 00:39:06;;;;;;;5.90;2.10;;;;;;;8.29;100.00;100539.19;4919690;29;20114;-80
2023/04/11 00:41:32;;;;;;;8.45;2.28;;;;;;;7.87;100.00;100541.97;4902123;29;20035;-80
2023/04/11 00:43:57;;;;;;;11.63;2.15;;;;;;;8.00;100.00;100542.59;4903481;29;20032;-80
2023/04/11 00:46:23;;;;;;;8.55;3.28;;;;;;;8.11;100.00;100547.19;4901383;29;20103;-80
2023/04/11 00:48:49;;;;;;;10.07;2.70;;;;;;;7.83;100.00;100538.28;4921112;29;20240;-80
2023/04/11 00:51:17;;;;;;;9.82;3.20;;;;;;;7.77;100.00;100531.41;4906600;29;20104;-80
2023/04/11 00:53:44;;;;;;;10.40;3.10;;;;;;;7.84;100.00;100529.56;4922544;29;20036;-80
2023/04/11 00:56:10;;;;;;;17.60;3.53;;;;;;;7.69;100.00;100541.59;4920092;29;20034;-80
2023/04/11 00:58:37;;;;;;;13.88;3.75;;;;;;;7.74;100.00;100532.94;4918075;29;20043;-80
2023/04/11 01:01:08;;;;;;;14.57;4.30;;;;;;;7.73;100.00;100534.09;4919890;29;20103;-80
2023/04/11 01:03:34;;;;;;;14.25;3.42;;;;;;;7.77;100.00;100526.63;4899554;29;20069;-80
2023/04/11 01:06:00;;;;;;;15.05;3.10;;;;;;;7.44;100.00;100527.97;4906634;29;20032;-80
2023/04/11 01:08:25;;;;;;;13.05;4.63;;;;;;;7.65;100.00;100529.56;4922880;29;20350;-80
2023/04/11 01:10:51;;;;;;;12.82;3.17;;;;;;;7.69;100.00;100541.59;4918629;29;20482;-80
2023/04/11 01:13:17;;;;;;;22.90;5.55;;;;;;;7.70;100.00;100529.28;4907228;29;20600;-81
2023/04/11 01:15:42;;;;;;;13.45;3.25;;;;;;;7.56;100.00;100537.34;4922699;29;20039;-81
2023/04/11 01:18:08;;;;;;;17.17;3.78;;;;;;;7.68;100.00;100532.44;4910065;29;20118;-81
2023/04/11 01:20:33;;;;;;;14.27;4.22;;;;;;;7.71;100.00;100528.09;4901700;29;20371;-80
2023/04/11 01:23:01;;;;;;;17.13;3.30;;;;;;;7.53;100.00;100536.09;4924470;29;20039;-81
2023/04/11 01:25:27;;;;;;;17.52;3.33;;;;;;;7.60;100.00;100538.22;4925976;29;20114;-81
2023/04/11 01:27:52;;;;;;;13.35;4.20;;;;;;;7.87;100.00;100526.03;4918452;29;20063;-81
2023/04/11 01:30:18;;;;;;;12.65;3.95;;;;;;;7.71;100.00;100528.91;4901280;29;20118;-81
2023/04/11 01:32:43;;;;;;;11.38;3.10;;;;;;;7.75;100.00;100542.91;4916173;29;20051;-81
2023/04/11 01:35:11;;;;;;;16.75;4.13;;;;;;;7.72;100.00;100538.09;4918420;29;20035;-81
2023/04/11 01:37:36;;;;;;;23.85;4.78;;;;;;;7.54;100.00;100541.28;4923828;29;20031;-81
2023/04/11 01:40:04;;;;;;;20.00;4.55;;;;;;;7.66;100.00;100543.13;4907899;29;20038;-81
2023/04/11 01:42:30;;;;;;;18.73;4.40;;;;;;;7.69;100.00;100536.81;4918929;29;20036;-81
2023/04/11 01:44:56;;;;;;;22.38;3.95;;;;;;;7.63;100.00;100529.94;4903201;29;20035;-81
2023/04/11 01:47:21;;;;;;;14.85;3.45;;;;;;;7.85;100.00;100522.00;4907872;29;20612;-81
2023/04/11 01:49:47;;;;;;;12.32;3.63;;;;;;;7.76;100.00;100527.81;4902266;29;20462;-81
2023/04/11 01:52:13;;;;;;;15.35;5.20;;;;;;;8.02;100.00;100543.03;4904917;29;20092;-82
2023/04/11 01:54:38;;;;;;;19.15;4.47;;;;;;;8.03;100.00;100536.28;4917389;29;20047;-81
2023/04/11 01:57:03;;;;;;;24.95;3.72;;;;;;;7.90;100.00;100535.63;4919998;29;20051;-81
2023/04/11 01:59:29;;;;;;;16.17;4.30;;;;;;;8.05;100.00;100537.53;4915484;28;20182;-81
2023/04/11 02:01:54;;;;;;;16.60;4.07;;;;;;;7.88;100.00;100510.91;4920663;29;20035;-81
2023/04/11 02:04:19;;;;;;;14.57;3.95;;;;;;;7.90;100.00;100542.00;4902936;29;20207;-81
2023/04/11 02:06:45;;;;;;;9.88;3.78;;;;;;;7.92;100.00;100534.09;4923592;29;20043;-81
2023/04/11 02:09:10;;;;;;;10.77;3.20;;;;;;;8.01;100.00;100549.78;4902473;29;20067;-81
2023/04/11 02:11:36;;;;;;;9.27;3.05;;;;;;;7.77;100.00;100551.69;4923812;29;20110;-81
2023/04/11 02:14:02;;;;;;;10.00;2.90;;;;;;;8.00;100.00;100546.19;4920861;29;20055;-81
2023/04/11 02:16:28;;;;;;;24.27;3.92;;;;;;;7.86;100.00;100552.31;4915014;29;20023;-82
2023/04/11 02:18:55;;;;;;;20.27;4.10;;;;;;;7.90;100.00;100555.94;4920240;29;20035;-82
2023/04/11 02:21:21;;;;;;;21.17;3.60;;;;;;;7.73;100.00;100539.69;4918154;29;20596;-81
2023/04/11 02:23:46;;;;;;;14.25;3.00;;;;;;;7.83;100.00;100555.81;4917743;29;20074;-81
2023/04/11 02:26:11;;;;;;;13.80;2.95;;;;;;;7.90;100.00;100547.59;4900762;29;20039;-82
2023/04/11 02:28:37;;;;;;;14.50;4.25;;;;;;;7.94;100.00;100567.16;4899035;29;20126;-82
2023/04/11 02:31:02;;;;;;;15.95;3.47;;;;;;;7.77;100.00;100559.25;4902274;29;20047;-81
2023/04/11 02:33:28;;;;;;;12.50;2.42;;;;;;;7.87;100.00;100565.06;4895478;29;20103;-81
2023/04/11 02:35:53;;;;;;;13.02;3.03;;;;;;;7.99;100.00;100555.75;4901271;29;20032;-81
2023/04/11 02:38:19;;;;;;;19.60;4.35;;;;;;;7.90;100.00;100567.09;4919277;29;20103;-81
2023/04/11 02:40:45;;;;;;;14.18;4.03;;;;;;;7.88;100.00;100568.63;4919562;29;20406;-81
2023/04/11 02:43:11;;;;;;;14.35;3.35;;;;;;;7.81;100.00;100566.50;4901256;29;20040;-81
2023/04/11 02:45:36;;;;;;;10.73;3.47;;;;;;;7.82;100.00;100572.88;4903799;29;20030;-81
2023/04/11 02:48:02;;;;;;;19.58;3.63;;;;;;;7.77;100.00;100565.63;4901096;29;20031;-83
2023/04/11 02:50:27;;;;;;;14.48;3.72;;;;;;;8.03;100.00;100580.88;4901118;29;20119;-82
2023/04/11 02:52:53;;;;;;;14.57;3.00;;;;;;;7.84;100.00;100582.53;4900700;29;20066;-82
2023/04/11 02:55:18;;;;;;;16.20;4.40;;;;;;;7.86;100.00;100571.81;4903020;29;20020;-82
2023/04/11 02:57:44;;;;;;;14.00;4.07;;;;;;;7.84;100.00;100582.53;4920511;29;20110;-82
2023/04/11 03:00:10;;;;;;;23.25;4.40;;;;;;;7.76;100.00;100568.78;4923953;29;20035;-82
2023/04/11 03:02:35;;;;;;;13.43;3.63;;;;;;;7.93;100.00;100591.47;4905127;29;20028;-82
2023/04/11 03:05:02;;;;;;;14.80;3.22;;;;;;;7.89;100.00;100590.56;4919053;29;20470;-82
2023/04/11 03:07:30;;;;;;;14.07;2.97;;;;;;;7.88;100.00;100594.53;4923491;29;20032;-81
2023/04/11 03:09:56;;;;;;;11.73;2.60;;;;;;;7.76;100.00;100579.94;4916254;29;20465;-82
2023/04/11 03:12:21;;;;;;;18.67;4.00;;;;;;;7.89;100.00;100590.56;4908290;29;20028;-81
2023/04/11 03:14:46;;;;;;;10.82;3.00;;;;;;;7.85;100.00;100578.53;4925317;29;20487;-81
2023/04/11 03:17:12;;;;;;;10.70;3.22;;;;;;;7.93;100.00;100599.81;4926280;29;20035;-81
2023/04/11 03:19:37;;;;;;;12.30;2.45;;;;;;;7.86;100.00;100596.91;4913581;29;20316;-81
2023/04/11 03:22:03;;;;;;;4.90;2.25;;;;;;;8.01;100.00;100598.00;4907889;29;20043;-81
2023/04/11 03:24:29;;;;;;;15.40;3.47;;;;;;;7.98;100.00;100586.75;4916359;29;20403;-82
2023/04/11 03:26:55;;;;;;;12.20;2.10;;;;;;;8.07;100.00;100585.34;4926895;29;20055;-81
2023/04/11 03:29:20;;;;;;;12.70;2.63;;;;;;;7.94;100.00;100597.81;4920146;29;20070;-81
2023/04/11 03:31:45;;;;;;;19.95;4.00;;;;;;;7.84;100.00;100590.88;4904374;29;20360;-81
2023/04/11 03:34:11;;;;;;;7.40;2.13;;;;;;;7.97;100.00;100597.13;4878814;29;20070;-81
2023/04/11 03:36:36;;;;;;;8.45;2.58;;;;;;;7.97;100.00;100596.28;4917075;29;20640;-82
2023/04/11 03:39:02;;;;;;;17.92;2.50;;;;;;;8.04;100.00;100590.88;4916410;29;20122;-82
2023/04/11 03:41:28;;;;;;;13.13;2.58;;;;;;;8.04;100.00;100608.38;4902794;29;20450;-82
2023/04/11 03:43:53;;;;;;;6.07;2.25;;;;;;;7.95;100.00;100582.72;4901514;29;20038;-82
2023/04/11 03:46:19;;;;;;;11.65;2.65;;;;;;;8.09;100.00;100596.13;4908559;29;21668;-82
2023/04/11 03:48:45;;;;;;;7.78;2.83;;;;;;;7.94;100.00;100598.63;4903755;29;20040;-82
2023/04/11 03:51:11;;;;;;;11.57;2.67;;;;;;;7.91;100.00;100599.38;4895494;29;20059;-82
2023/04/11 03:53:36;;;;;;;6.80;2.25;;;;;;;8.07;100.00;100612.41;4900388;29;20095;-82
2023/04/11 03:56:03;;;;;;;9.38;2.75;;;;;;;7.92;100.00;100617.69;4897890;29;21743;-82
2023/04/11 03:58:28;;;;;;;6.90;2.92;;;;;;;7.96;100.00;100622.56;4885772;29;20063;-82
2023/04/11 04:00:54;;;;;;;9.43;2.72;;;;;;;8.02;100.00;100615.50;4883795;29;20106;-82
2023/04/11 04:03:19;;;;;;;9.52;2.42;;;;;;;8.04;100.00;100618.75;4879710;29;20024;-83
2023/04/11 04:05:45;;;;;;;11.10;3.10;;;;;;;8.05;100.00;100620.34;4909047;29;20036;-82
2023/04/11 04:08:10;;;;;;;10.65;3.15;;;;;;;8.11;100.00;100621.66;4900663;29;20047;-82
2023/04/11 04:10:35;;;;;;;11.07;3.83;;;;;;;8.12;100.00;100614.94;4903493;29;20027;-83
2023/04/11 04:13:01;;;;;;;9.85;3.65;;;;;;;8.07;100.00;100626.34;4881937;29;20077;-82
2023/04/11 04:15:26;;;;;;;11.43;2.53;;;;;;;8.01;100.00;100625.03;4890558;29;20035;-82
2023/04/11 04:17:51;;;;;;;13.48;2.55;;;;;;;8.08;100.00;100630.78;4893068;29;20040;-81
2023/04/11 04:20:17;;;;;;;15.43;3.53;;;;;;;8.13;100.00;100627.69;4891624;29;20035;-82
2023/04/11 04:22:46;;;;;;;17.33;3.97;;;;;;;8.23;100.00;100632.66;4902826;29;20106;-83
2023/04/11 04:25:14;;;;;;;9.57;3.53;;;;;;;8.14;100.00;100630.09;4913128;29;20083;-82
2023/04/11 04:27:43;;;;;;;9.52;2.85;;;;;;;8.17;100.00;100633.34;4913020;29;20394;-82
2023/04/11 04:30:14;;;;;;;11.02;2.47;;;;;;;8.00;100.00;100646.53;4917441;29;20163;-82
2023/04/11 04:32:44;;;;;;;9.98;3.45;;;;;;;8.13;100.00;100641.63;4921477;29;20136;-83
2023/04/11 04:35:16;;;;;;;6.13;2.45;;;;;;;8.05;100.00;100642.63;4900610;29;20479;-83
2023/04/11 04:37:45;;;;;;;11.00;3.30;;;;;;;8.11;100.00;100650.34;4902701;29;20482;-83
2023/04/11 04:40:14;;;;;;;6.45;3.33;;;;;;;8.20;100.00;100644.56;4923612;29;20027;-82
2023/04/11 04:42:40;;;;;;;8.32;3.55;;;;;;;8.18;100.00;100657.25;4926021;29;20405;-82
2023/04/11 04:45:07;;;;;;;11.23;2.65;;;;;;;8.11;100.00;100655.91;4903940;29;20088;-82
2023/04/11 04:47:35;;;;;;;13.73;3.92;;;;;;;8.20;100.00;100671.63;4899711;29;20046;-82
2023/04/11 04:50:00;;;;;;;5.75;2.35;;;;;;;8.01;100.00;100664.88;4902448;29;20042;-82
2023/04/11 04:52:27;;;;;;;8.23;2.67;;;;;;;8.03;100.00;100664.50;4922626;29;20525;-82
2023/04/11 04:54:56;;;;;;;19.42;2.92;;;;;;;8.11;100.00;100664.28;4900968;29;20439;-82
2023/04/11 04:57:26;;;;;;;6.15;2.55;;;;;;;8.10;100.00;100673.03;4924278;29;20023;-83
2023/04/11 04:59:51;;;;;;;5.55;2.33;;;;;;;8.14;100.00;100674.72;4922531;29;20032;-82
2023/04/11 05:02:17;;;;;;;9.27;4.10;;;;;;;8.10;100.00;100673.03;4907535;29;20028;-82
2023/04/11 05:04:43;;;;;;;6.47;1.85;;;;;;;8.13;100.00;100691.81;4911259;29;20036;-82
2023/04/11 05:07:09;;;;;;;9.75;2.85;;;;;;;8.07;100.00;100684.91;4919771;29;20040;-82
2023/04/11 05:09:35;;;;;;;9.63;2.03;;;;;;;8.00;100.00;100687.53;4920291;29;20441;-83
2023/04/11 05:12:01;;;;;;;5.50;2.38;;;;;;;8.12;100.00;100698.56;4902931;29;20031;-82
2023/04/11 05:14:26;;;;;;;5.10;2.30;;;;;;;8.12;100.00;100695.78;4906354;29;20031;-82
2023/04/11 05:16:52;;;;;;;10.88;2.30;;;;;;;7.96;100.00;100701.38;4898816;29;20067;-82
2023/04/11 05:19:17;;;;;;;8.00;3.22;;;;;;;7.96;100.00;100695.00;4903573;29;20042;-82
2023/04/11 05:21:43;;;;;;;6.05;2.33;;;;;;;8.07;100.00;100691.28;4901542;29;20502;-82
2023/04/11 05:24:08;;;;;;;10.80;2.55;;;;;;;8.03;100.00;100706.31;4916946;29;20195;-82
2023/04/11 05:26:33;;;;;;;12.50;3.00;;;;;;;7.96;100.00;100704.19;4924443;29;20477;-82
2023/04/11 05:28:59;;;;;;;8.57;2.58;;;;;;;8.01;100.00;100698.34;4903251;29;20058;-82
2023/04/11 05:31:25;;;;;;;8.55;2.40;;;;;;;7.94;100.00;100707.31;4928347;29;20028;-82
2023/04/11 05:33:51;;;;;;;15.23;3.17;;;;;;;8.04;100.00;100710.72;4926518;28;20038;-82
2023/04/11 05:36:16;;;;;;;11.23;2.25;;;;;;;8.05;100.00;100715.13;4909184;29;20115;-82
2023/04/11 05:38:43;;;;;;;7.28;2.42;;;;;;;7.93;100.00;100718.84;4923849;29;20093;-82
2023/04/11 05:41:10;;;;;;;8.63;2.47;;;;;;;8.07;100.00;100729.50;4901905;29;20074;-82
2023/04/11 05:43:35;;;;;;;10.00;3.28;;;;;;;8.00;100.00;100737.72;4914063;29;21873;-82
2023/04/11 05:46:02;;;;;;;6.20;2.15;;;;;;;7.97;100.00;100741.22;4923879;29;20035;-82
2023/04/11 05:48:27;;;;;;;10.05;2.28;;;;;;;7.88;100.00;100733.84;4912269;29;20031;-82
2023/04/11 05:50:53;;;;;;;8.90;2.35;;;;;;;7.88;100.00;100733.06;4884951;29;20747;-82
2023/04/11 05:53:18;;;;;;;10.95;3.33;;;;;;;7.94;100.00;100737.19;4899337;29;20042;-82
2023/04/11 05:55:43;;;;;;;5.78;2.35;;;;;;;7.92;100.00;100754.25;4899438;29;20035;-82
2023/04/11 05:58:09;;;;;;;9.30;2.28;;;;;;;8.08;100.00;100745.06;4915101;29;20028;-82
2023/04/11 06:00:37;;;;;;;14.90;2.80;;;;;;;8.06;100.00;100750.19;4913862;29;20031;-81
2023/04/11 06:03:03;;;;;;;8.43;2.25;;;;;;;7.85;100.00;100753.31;4905852;29;20226;-81
2023/04/11 06:05:30;;;;;;;11.25;2.75;;;;;;;8.02;100.00;100754.88;4907593;29;20032;-80
2023/04/11 06:07:57;;;;;;;12.48;2.30;;;;;;;8.31;100.00;100754.34;4916301;29;20043;-84
2023/04/11 06:10:23;;;;;;;5.97;2.10;;;;;;;8.60;100.00;100762.50;4920442;29;20066;-80
2023/04/11 06:12:48;;;;;;;15.85;4.85;;;;;;;8.00;100.00;100751.66;4916805;29;20165;-77
2023/04/11 06:15:14;;;;;;;9.50;1.95;;;;;;;8.02;100.00;100769.63;4913864;29;20097;-77
2023/04/11 06:17:39;;;;;;;9.50;3.47;;;;;;;8.03;100.00;100776.00;4899943;29;20504;-78
2023/04/11 06:20:06;;;;;;;12.07;3.10;;;;;;;8.03;100.00;100771.25;4899157;29;20039;-77
2023/04/11 06:22:31;;;;;;;12.10;2.30;;;;;;;7.94;100.00;100771.44;4918962;29;20031;-77
2023/04/11 06:24:57;;;;;;;8.65;2.22;;;;;;;8.02;100.00;100780.78;4916745;29;20027;-77
2023/04/11 06:27:22;;;;;;;9.63;2.67;;;;;;;8.09;100.00;100788.47;4914904;29;20410;-77
2023/04/11 06:29:47;;;;;;;10.15;2.90;;;;;;;8.04;100.00;100780.41;4897038;29;20511;-77
2023/04/11 06:32:13;;;;;;;8.10;3.22;;;;;;;8.07;100.00;100799.19;4912298;29;20031;-78
2023/04/11 06:34:38;;;;;;;9.43;2.55;;;;;;;8.27;100.00;100794.47;4915945;29;20085;-77
2023/04/11 06:37:05;;;;;;;11.25;2.15;;;;;;;8.20;100.00;100806.28;4920686;29;20063;-77
2023/04/11 06:39:31;;;;;;;5.70;2.00;;;;;;;8.13;100.00;100800.53;4919856;29;20055;-76
2023/04/11 06:41:56;;;;;;;7.35;2.35;;;;;;;8.14;100.00;100802.16;4902523;29;20478;-77
2023/04/11 06:44:22;;;;;;;10.20;1.88;;;;;;;8.10;100.00;100813.22;4922235;29;20036;-77
2023/04/11 06:46:47;;;;;;;11.15;2.78;;;;;;;8.05;100.00;100801.53;4907024;29;20039;-77
2023/04/11 06:49:12;;;;;;;14.85;2.83;;;;;;;8.10;100.00;100816.00;4907768;29;20030;-77
2023/04/11 06:51:38;;;;;;;6.78;3.22;;;;;;;8.17;100.00;100823.72;4924150;29;20139;-77
2023/04/11 06:54:05;;;;;;;9.07;3.05;;;;;;;8.14;100.00;100813.31;4921408;29;20088;-77
2023/04/11 06:56:30;;;;;;;10.52;2.47;;;;;;;8.28;100.00;100821.19;4916413;29;20641;-76
2023/04/11 06:58:56;;;;;;;13.57;2.72;;;;;;;8.22;100.00;100817.88;4917593;29;20035;-78
2023/04/11 07:01:24;;;;;;;7.05;1.90;;;;;;;8.21;100.00;100829.41;4927023;29;20031;-78
2023/04/11 07:03:51;;;;;;;9.27;2.75;;;;;;;8.26;100.00;100832.69;4922068;29;20494;-78
2023/04/11 07:06:18;;;;;;;8.95;3.67;;;;;;;8.27;100.00;100834.31;4922545;29;20479;-78
2023/04/11 07:08:43;;;;;;;11.52;2.65;;;;;;;8.41;100.00;100833.03;4920284;29;20033;-78
2023/04/11 07:11:08;;;;;;;6.97;2.10;;;;;;;8.31;100.00;100834.41;4915216;29;20044;-78
2023/04/11 07:13:34;;;;;;;14.57;2.35;;;;;;;8.45;100.00;100853.47;4920588;29;20031;-78
2023/04/11 07:15:59;;;;;;;11.30;2.20;;;;;;;8.43;100.00;100844.66;4923991;29;20024;-78
2023/04/11 07:18:27;;;;;;;16.17;2.28;;;;;;;8.39;100.00;100846.53;4905884;29;20110;-78
2023/04/11 07:20:53;;;;;;;5.00;1.80;;;;;;;8.39;100.00;100852.09;4913215;29;20058;-78
2023/04/11 07:23:18;;;;;;;7.30;2.13;;;;;;;8.45;100.00;100857.06;4898099;29;20464;-78
2023/04/11 07:25:43;;;;;;;7.45;1.83;;;;;;;8.51;100.00;100863.97;4918579;29;20106;-78
2023/04/11 07:28:10;;;;;;;12.02;2.95;;;;;;;8.62;100.00;100855.88;4922048;29;20138;-78
2023/04/11 07:30:36;;;;;;;11.65;3.42;;;;;;;8.73;100.00;100858.88;4908167;29;20118;-78
2023/04/11 07:33:02;;;;;;;9.70;2.20;;;;;;;8.61;100.00;100865.41;4911089;29;20458;-78
2023/04/11 07:35:27;;;;;;;11.65;3.33;;;;;;;8.69;100.00;100861.59;4925450;29;20027;-79
2023/04/11 07:37:53;;;;;;;10.13;2.13;;;;;;;8.59;100.00;100878.09;4925688;29;20047;-78
2023/04/11 07:40:19;;;;;;;16.50;2.58;;;;;;;8.50;100.00;100867.16;4908084;29;20027;-78
2023/04/11 07:42:47;;;;;;;15.68;2.38;;;;;;;8.61;100.00;100876.56;4928847;29;20032;-77
2023/04/11 07:45:13;;;;;;;10.07;2.58;;;;;;;8.60;100.00;100865.75;4924557;29;20465;-78
2023/04/11 07:47:38;;;;;;;4.93;1.90;;;;;;;8.65;100.00;100883.03;4927268;29;20027;-78
2023/04/11 07:50:04;;;;;;;8.48;1.95;;;;;;;8.71;100.00;100867.63;4902827;29;20039;-78
2023/04/11 07:52:30;;;;;;;5.13;1.80;;;;;;;8.72;100.00;100872.00;4920074;29;20115;-79
2023/04/11 07:54:55;;;;;;;7.63;2.90;;;;;;;8.71;100.00;100870.41;4925483;29;20470;-78
2023/04/11 07:57:21;;;;;;;8.65;2.70;;;;;;;8.69;100.00;100872.75;4927158;29;20492;-78
2023/04/11 07:59:46;;;;;;;14.15;3.55;;;;;;;8.72;100.00;100876.78;4906794;29;20474;-78
2023/04/11 08:02:12;;;;;;;12.23;4.88;;;;;;;8.74;100.00;100869.66;4919636;29;20032;-78
2023/04/11 08:04:37;;;;;;;17.75;3.50;;;;;;;8.85;100.00;100885.81;4927168;29;20028;-78
2023/04/11 08:07:02;;;;;;;9.15;2.47;;;;;;;8.92;100.00;100892.38;4904801;29;20028;-78
2023/04/11 08:09:28;;;;;;;8.18;2.58;;;;;;;8.98;100.00;100892.91;4920726;29;20023;-78
2023/04/11 08:11:55;;;;;;;8.05;2.72;;;;;;;9.09;100.00;100888.34;4922660;29;20150;-77
2023/04/11 08:14:21;;;;;;;9.70;3.55;;;;;;;9.03;100.00;100900.97;4921608;29;20039;-78
2023/04/11 08:16:46;;;;;;;11.52;2.20;;;;;;;8.99;100.00;100905.69;4924862;29;20091;-78
2023/04/11 08:19:12;;;;;;;8.20;2.58;;;;;;;8.97;100.00;100913.63;4925147;29;20075;-78
2023/04/11 08:21:37;;;;;;;11.07;2.60;;;;;;;8.94;100.00;100917.94;4906807;29;20442;-78
2023/04/11 08:24:03;;;;;;;9.55;2.95;;;;;;;8.92;100.00;100919.50;4901630;29;20027;-77
2023/04/11 08:26:28;;;;;;;3.58;2.03;;;;;;;9.00;100.00;100917.66;4920544;29;20118;-78
2023/04/11 08:28:54;;;;;;;10.23;2.25;;;;;;;9.03;100.00;100911.34;4922241;29;20032;-78
2023/04/11 08:31:19;;;;;;;7.78;2.30;;;;;;;9.00;100.00;100921.25;4920927;29;20035;-78
2023/04/11 08:33:45;;;;;;;13.23;2.78;;;;;;;8.92;100.00;100925.09;4924407;29;20024;-78
2023/04/11 08:36:10;;;;;;;5.13;2.15;;;;;;;8.84;100.00;100934.47;4927596;29;20478;-78
2023/04/11 08:38:36;;;;;;;8.82;3.58;;;;;;;8.82;100.00;100931.22;4925512;29;20119;-77
2023/04/11 08:41:02;;;;;;;11.02;2.22;;;;;;;8.79;100.00;100931.94;4923708;29;20414;-78
2023/04/11 08:43:27;;;;;;;13.63;2.75;;;;;;;8.78;100.00;100933.94;4903765;29;20039;-78
2023/04/11 08:45:52;;;;;;;9.07;3.22;;;;;;;8.88;100.00;100952.09;4903785;29;20031;-78
2023/04/11 08:48:24;;;;;;;14.57;2.80;;;;;;;8.87;100.00;100928.16;4908867;29;20162;-78
2023/04/11 08:50:49;;;;;;;9.13;2.47;;;;;;;8.87;100.00;100945.69;4922676;29;20114;-78
2023/04/11 08:53:16;;;;;;;12.55;5.32;;;;;;;8.85;100.00;100947.25;4919232;29;20152;-78
2023/04/11 08:55:45;;;;;;;18.73;2.70;;;;;;;8.90;100.00;100944.19;4905527;29;20024;-78
2023/04/11 08:58:11;;;;;;;11.25;2.72;;;;;;;9.09;100.00;100940.59;4906502;29;20027;-77
2023/04/11 09:00:36;;;;;;;13.48;2.97;;;;;;;8.95;100.00;100936.31;4907034;29;20034;-77
2023/04/11 09:03:07;;;;;;;10.52;4.10;;;;;;;8.98;100.00;100945.97;4931603;29;20042;-77
2023/04/11 09:05:37;;;;;;;8.07;2.70;;;;;;;9.03;100.00;100954.03;4914025;29;20032;-79
2023/04/11 09:08:13;;;;;;;9.57;2.70;;;;;;;8.97;100.00;100949.91;4924555;29;20020;-78
2023/04/11 09:10:40;;;;;;;7.82;3.60;;;;;;;8.98;100.00;100945.97;4925064;29;20158;-78
2023/04/11 09:13:21;;;;;;;11.23;2.80;;;;;;;9.04;100.00;100954.84;4923523;29;20413;-77
2023/04/11 09:15:47;;;;;;;14.10;2.65;;;;;;;9.04;100.00;100955.63;4923904;29;20398;-78
2023/04/11 09:18:45;;;;;;;7.82;3.13;;;;;;;9.14;100.00;100955.06;4921333;29;20038;-78
2023/04/11 09:21:13;;;;;;;8.43;2.50;;;;;;;9.20;100.00;100949.19;4916062;29;20122;-78
2023/04/11 09:23:39;;;;;;;8.13;2.45;;;;;;;9.25;100.00;100948.91;4915879;29;20028;-78
2023/04/11 09:26:06;;;;;;;9.70;2.63;;;;;;;9.43;100.00;100954.88;4904961;29;20035;-78
2023/04/11 09:28:43;;;;;;;7.45;2.90;;;;;;;9.52;100.00;100964.63;4921012;29;20032;-79
2023/04/11 09:31:11;;;;;;;6.07;2.75;;;;;;;9.60;100.00;100953.59;4902828;29;20023;-78
2023/04/11 09:33:37;;;;;;;9.60;2.20;;;;;;;9.54;100.00;100972.66;4926768;29;20111;-78
2023/04/11 09:36:17;;;;;;;7.15;2.42;;;;;;;9.36;99.06;100963.91;4906412;29;20027;-77
2023/04/11 09:38:43;;;;;;;8.60;3.00;;;;;;;9.24;100.00;100964.06;4906306;29;20046;-76
2023/04/11 09:41:08;;;;;;;6.28;1.98;;;;;;;9.21;100.00;100965.56;4928615;29;20023;-77
2023/04/11 09:43:56;;;;;;;8.43;2.50;;;;;;;9.26;99.17;100970.88;4923747;29;20055;-78
2023/04/11 09:46:22;;;;;;;8.57;2.83;;;;;;;9.45;97.33;100986.03;4917436;29;20507;-78
2023/04/11 09:48:49;;;;;;;6.72;2.42;;;;;;;9.32;98.57;100977.78;4919651;29;20130;-78
2023/04/11 09:51:15;;;;;;;8.52;2.58;;;;;;;9.23;100.00;100979.97;4902514;29;20039;-78
2023/04/11 09:53:41;;;;;;;11.20;2.95;;;;;;;9.14;97.73;100988.56;4925031;29;20075;-79
2023/04/11 09:56:08;;;;;;;7.18;2.42;;;;;;;9.10;100.00;100984.88;4910655;29;20474;-78
2023/04/11 09:58:35;;;;;;;10.52;3.22;;;;;;;9.18;100.00;100985.06;4921068;29;20758;-78
2023/04/11 10:01:02;;;;;;;9.48;3.50;;;;;;;9.44;99.72;100990.78;4924983;29;20031;-78
2023/04/11 10:03:33;;;;;;;8.57;2.72;;;;;;;9.54;96.82;100989.41;4927552;29;20066;-78
2023/04/11 10:06:01;;;;;;;11.10;2.72;;;;;;;9.59;98.38;100986.31;4904943;29;20394;-79
2023/04/11 10:08:31;;;;;;;12.10;3.42;;;;;;;9.76;95.59;100976.66;4921561;29;20115;-78
2023/04/11 10:10:58;;;;;;;10.00;2.50;;;;;;;9.69;93.23;100982.91;4920293;29;20059;-78
2023/04/11 10:13:43;;;;;;;10.32;3.00;;;;;;;9.72;95.73;100982.19;4924640;29;20023;-77
2023/04/11 10:16:14;;;;;;;12.10;2.63;;;;;;;9.78;94.04;100982.69;4912624;29;20032;-78
2023/04/11 10:19:03;;;;;;;9.38;2.65;;;;;;;9.76;95.49;100996.22;4922615;29;20038;-77
2023/04/11 10:21:31;;;;;;;13.20;2.67;;;;;;;9.96;93.80;100997.81;4906755;29;20402;-78
2023/04/11 10:24:14;;;;;;;8.02;2.25;;;;;;;10.08;91.29;100985.66;4929867;29;20032;-78
2023/04/11 10:26:56;;;;;;;12.57;2.83;;;;;;;10.36;89.28;100990.97;4926184;29;20035;-77
2023/04/11 10:29:45;;;;;;;8.68;3.40;;;;;;;10.13;90.92;101004.13;4911528;29;20081;-77
2023/04/11 10:32:19;;;;;;;8.35;2.50;;;;;;;9.92;92.50;100999.72;4919379;29;20065;-78
2023/04/11 10:34:50;;;;;;;13.52;2.50;;;;;;;9.90;90.98;101004.88;4932117;29;20035;-78
2023/04/11 10:37:17;;;;;;;9.98;2.65;;;;;;;9.73;91.18;101010.94;4929639;29;20039;-77
2023/04/11 10:39:56;;;;;;;10.00;2.15;;;;;;;9.95;93.57;101009.38;4911714;29;20508;-78
2023/04/11 10:42:32;;;;;;;14.07;4.03;;;;;;;10.21;92.69;101011.47;4924085;29;20462;-78
2023/04/11 10:45:20;;;;;;;7.85;2.25;;;;;;;10.56;88.12;101004.88;4925066;29;20504;-77
2023/04/11 10:47:55;;;;;;;9.50;2.85;;;;;;;10.54;92.63;101013.66;4904403;29;20149;-77
2023/04/11 10:50:26;;;;;;;13.38;2.13;;;;;;;10.03;89.49;101018.72;4905616;29;20040;-78
2023/04/11 10:52:52;;;;;;;6.88;1.88;;;;;;;10.35;87.52;101022.94;4922635;29;20466;-77
2023/04/11 10:55:18;;;;;;;11.10;2.85;;;;;;;10.54;89.46;101018.44;4927576;29;20058;-77
2023/04/11 10:58:02;;;;;;;7.25;2.25;;;;;;;10.72;91.18;101016.75;4929764;29;20024;-77
2023/04/11 11:00:28;;;;;;;8.15;1.95;;;;;;;11.00;86.56;101012.75;4911746;29;20039;-78
2023/04/11 11:02:54;;;;;;;6.55;1.88;;;;;;;10.87;87.02;101019.78;4913540;29;20533;-78
2023/04/11 11:05:22;;;;;;;8.43;2.05;;;;;;;10.88;84.04;101016.59;4932345;29;20040;-77
2023/04/11 11:07:49;;;;;;;6.00;2.67;;;;;;;10.89;85.75;101011.81;4907606;29;20138;-78
2023/04/11 11:10:14;;;;;;;5.88;1.92;;;;;;;10.83;84.12;101018.91;4922521;29;20032;-77
2023/04/11 11:12:55;;;;;;;7.30;2.47;;;;;;;11.18;82.28;101030.63;4923423;29;20032;-77
2023/04/11 11:15:21;;;;;;;10.10;2.72;;;;;;;11.06;85.94;101025.25;4907446;29;20137;-77
2023/04/11 11:17:46;;;;;;;9.90;2.40;;;;;;;11.28;88.66;101026.38;4908132;29;20055;-77
2023/04/11 11:20:18;;;;;;;6.97;2.10;;;;;;;10.67;86.48;101025.47;4906283;29;20130;-77